Peach Springs, Arizona
Current Conditions -  °F | °C
As of 6:51 AM on Friday 28 Nov 2014 (Local Time) from KIGM Reporting Station
Clear Clear  
Wind Chill: 34°   Ceiling: Unl
Heat Index: 34°   Visibility: NA
Dew Point: 13°   Wind: 3mph
Humidity: 42%   Direction: 140°SE
Pressure: 30.13"   Gusts: NA
Location:  35.53°N, 113.43°W
Report Text: KIGM 281351Z AUTO 14003KT CLR 01/M11 A3013 RMK AO2 SLP178 T00111106 $
Loading
Personal Weather Stations






























Interactive Weather Map New forecast layout! Learn more

10-Day Weather Forecast

Advertisements
Track Severe Weather on mobile